sensor_id;sensor_type;location;lat;lon;timestamp;P1;durP1;ratioP1;P2;durP2;ratioP2
14760;SDS011;7472;45.396;5.272;2024-01-11T00:00:48;40.30;;;25.05;;
14760;SDS011;7472;45.396;5.272;2024-01-11T00:03:15;42.25;;;26.55;;
14760;SDS011;7472;45.396;5.272;2024-01-11T00:05:42;44.15;;;25.52;;
14760;SDS011;7472;45.396;5.272;2024-01-11T00:08:12;45.05;;;26.15;;
14760;SDS011;7472;45.396;5.272;2024-01-11T00:10:39;40.85;;;26.40;;
14760;SDS011;7472;45.396;5.272;2024-01-11T00:13:06;41.28;;;26.45;;
14760;SDS011;7472;45.396;5.272;2024-01-11T00:15:34;40.70;;;25.65;;
14760;SDS011;7472;45.396;5.272;2024-01-11T00:18:01;41.97;;;25.63;;
14760;SDS011;7472;45.396;5.272;2024-01-11T00:20:29;44.37;;;27.27;;
14760;SDS011;7472;45.396;5.272;2024-01-11T00:22:56;44.22;;;26.30;;
14760;SDS011;7472;45.396;5.272;2024-01-11T00:25:25;44.67;;;27.83;;
14760;SDS011;7472;45.396;5.272;2024-01-11T00:27:52;45.67;;;27.90;;
14760;SDS011;7472;45.396;5.272;2024-01-11T00:30:19;41.57;;;26.40;;
14760;SDS011;7472;45.396;5.272;2024-01-11T00:32:48;41.13;;;25.47;;
14760;SDS011;7472;45.396;5.272;2024-01-11T00:35:15;44.50;;;27.30;;
14760;SDS011;7472;45.396;5.272;2024-01-11T00:37:43;42.80;;;26.73;;
14760;SDS011;7472;45.396;5.272;2024-01-11T00:40:10;45.13;;;27.65;;
14760;SDS011;7472;45.396;5.272;2024-01-11T00:42:39;45.92;;;27.42;;
14760;SDS011;7472;45.396;5.272;2024-01-11T00:45:07;43.42;;;26.90;;
14760;SDS011;7472;45.396;5.272;2024-01-11T00:47:34;42.83;;;27.17;;
14760;SDS011;7472;45.396;5.272;2024-01-11T00:50:01;45.50;;;27.80;;
14760;SDS011;7472;45.396;5.272;2024-01-11T00:52:29;42.92;;;26.45;;
14760;SDS011;7472;45.396;5.272;2024-01-11T00:54:56;44.63;;;27.87;;
14760;SDS011;7472;45.396;5.272;2024-01-11T00:57:23;42.42;;;27.25;;
14760;SDS011;7472;45.396;5.272;2024-01-11T00:59:52;42.58;;;25.20;;
14760;SDS011;7472;45.396;5.272;2024-01-11T01:02:20;43.33;;;26.23;;
14760;SDS011;7472;45.396;5.272;2024-01-11T01:04:47;44.35;;;27.33;;
14760;SDS011;7472;45.396;5.272;2024-01-11T01:07:15;42.00;;;27.33;;
14760;SDS011;7472;45.396;5.272;2024-01-11T01:09:42;44.42;;;27.13;;
14760;SDS011;7472;45.396;5.272;2024-01-11T01:12:09;44.38;;;27.13;;
14760;SDS011;7472;45.396;5.272;2024-01-11T01:14:37;44.15;;;27.83;;
14760;SDS011;7472;45.396;5.272;2024-01-11T01:17:05;52.73;;;29.13;;
14760;SDS011;7472;45.396;5.272;2024-01-11T01:19:33;44.87;;;27.50;;
14760;SDS011;7472;45.396;5.272;2024-01-11T01:22:00;42.20;;;27.23;;
14760;SDS011;7472;45.396;5.272;2024-01-11T01:24:27;47.60;;;28.70;;
14760;SDS011;7472;45.396;5.272;2024-01-11T01:26:55;49.85;;;29.20;;
14760;SDS011;7472;45.396;5.272;2024-01-11T01:29:22;51.40;;;28.38;;
14760;SDS011;7472;45.396;5.272;2024-01-11T01:31:49;47.65;;;28.55;;
14760;SDS011;7472;45.396;5.272;2024-01-11T01:34:18;50.22;;;29.80;;
14760;SDS011;7472;45.396;5.272;2024-01-11T01:36:45;48.60;;;30.20;;
14760;SDS011;7472;45.396;5.272;2024-01-11T01:39:13;52.63;;;30.50;;
14760;SDS011;7472;45.396;5.272;2024-01-11T01:41:41;51.65;;;31.85;;
14760;SDS011;7472;45.396;5.272;2024-01-11T01:44:08;45.35;;;23.67;;
14760;SDS011;7472;45.396;5.272;2024-01-11T01:46:35;52.22;;;30.48;;
14760;SDS011;7472;45.396;5.272;2024-01-11T01:49:03;48.23;;;28.40;;
14760;SDS011;7472;45.396;5.272;2024-01-11T01:51:32;45.63;;;28.80;;
14760;SDS011;7472;45.396;5.272;2024-01-11T01:54:00;54.63;;;32.28;;
14760;SDS011;7472;45.396;5.272;2024-01-11T01:56:29;42.78;;;28.38;;
14760;SDS011;7472;45.396;5.272;2024-01-11T01:58:56;47.30;;;29.30;;
14760;SDS011;7472;45.396;5.272;2024-01-11T02:01:25;45.90;;;28.23;;
14760;SDS011;7472;45.396;5.272;2024-01-11T02:03:53;46.72;;;28.20;;
14760;SDS011;7472;45.396;5.272;2024-01-11T02:06:21;52.13;;;31.92;;
14760;SDS011;7472;45.396;5.272;2024-01-11T02:08:50;48.65;;;28.70;;
14760;SDS011;7472;45.396;5.272;2024-01-11T02:11:19;52.33;;;28.38;;
14760;SDS011;7472;45.396;5.272;2024-01-11T02:13:48;52.30;;;30.38;;
14760;SDS011;7472;45.396;5.272;2024-01-11T02:16:15;44.33;;;27.00;;
14760;SDS011;7472;45.396;5.272;2024-01-11T02:18:43;44.17;;;28.35;;
14760;SDS011;7472;45.396;5.272;2024-01-11T02:21:11;46.75;;;28.45;;
14760;SDS011;7472;45.396;5.272;2024-01-11T02:23:40;51.40;;;30.30;;
14760;SDS011;7472;45.396;5.272;2024-01-11T02:26:12;47.53;;;29.00;;
14760;SDS011;7472;45.396;5.272;2024-01-11T02:28:43;49.75;;;28.65;;
14760;SDS011;7472;45.396;5.272;2024-01-11T02:31:10;46.63;;;28.55;;
14760;SDS011;7472;45.396;5.272;2024-01-11T02:33:38;50.15;;;30.05;;
14760;SDS011;7472;45.396;5.272;2024-01-11T02:36:05;48.83;;;30.20;;
14760;SDS011;7472;45.396;5.272;2024-01-11T02:38:33;53.93;;;31.47;;
14760;SDS011;7472;45.396;5.272;2024-01-11T02:41:01;52.23;;;31.60;;
14760;SDS011;7472;45.396;5.272;2024-01-11T02:43:30;48.60;;;28.55;;
14760;SDS011;7472;45.396;5.272;2024-01-11T02:45:57;47.05;;;29.45;;
14760;SDS011;7472;45.396;5.272;2024-01-11T02:48:27;49.30;;;31.20;;
14760;SDS011;7472;45.396;5.272;2024-01-11T02:50:54;50.30;;;26.38;;
14760;SDS011;7472;45.396;5.272;2024-01-11T02:53:22;49.30;;;28.60;;
14760;SDS011;7472;45.396;5.272;2024-01-11T02:55:49;53.53;;;29.93;;
14760;SDS011;7472;45.396;5.272;2024-01-11T02:58:17;55.10;;;29.73;;
14760;SDS011;7472;45.396;5.272;2024-01-11T03:00:45;49.30;;;29.60;;
14760;SDS011;7472;45.396;5.272;2024-01-11T03:03:13;49.42;;;29.75;;
14760;SDS011;7472;45.396;5.272;2024-01-11T03:05:40;52.67;;;31.10;;
14760;SDS011;7472;45.396;5.272;2024-01-11T03:08:07;47.97;;;29.17;;
14760;SDS011;7472;45.396;5.272;2024-01-11T03:10:36;53.73;;;31.77;;
14760;SDS011;7472;45.396;5.272;2024-01-11T03:13:05;51.50;;;29.40;;
14760;SDS011;7472;45.396;5.272;2024-01-11T03:15:32;46.50;;;28.48;;
14760;SDS011;7472;45.396;5.272;2024-01-11T03:18:01;52.90;;;30.30;;
14760;SDS011;7472;45.396;5.272;2024-01-11T03:20:28;48.80;;;28.83;;
14760;SDS011;7472;45.396;5.272;2024-01-11T03:22:55;46.97;;;28.73;;
14760;SDS011;7472;45.396;5.272;2024-01-11T03:25:23;52.13;;;30.80;;
14760;SDS011;7472;45.396;5.272;2024-01-11T03:27:50;51.73;;;28.90;;
14760;SDS011;7472;45.396;5.272;2024-01-11T03:30:17;54.67;;;29.97;;
14760;SDS011;7472;45.396;5.272;2024-01-11T03:32:45;52.28;;;29.27;;
14760;SDS011;7472;45.396;5.272;2024-01-11T03:35:14;50.43;;;29.13;;
14760;SDS011;7472;45.396;5.272;2024-01-11T03:37:41;55.47;;;30.57;;
14760;SDS011;7472;45.396;5.272;2024-01-11T03:40:08;56.25;;;30.33;;
14760;SDS011;7472;45.396;5.272;2024-01-11T03:42:36;55.15;;;29.92;;
14760;SDS011;7472;45.396;5.272;2024-01-11T03:45:04;55.17;;;30.60;;
14760;SDS011;7472;45.396;5.272;2024-01-11T03:47:31;54.40;;;28.77;;
14760;SDS011;7472;45.396;5.272;2024-01-11T03:49:58;53.83;;;27.43;;
14760;SDS011;7472;45.396;5.272;2024-01-11T03:52:27;51.50;;;29.02;;
14760;SDS011;7472;45.396;5.272;2024-01-11T03:54:54;56.28;;;29.52;;
14760;SDS011;7472;45.396;5.272;2024-01-11T03:57:22;54.47;;;30.02;;
14760;SDS011;7472;45.396;5.272;2024-01-11T03:59:49;51.63;;;28.23;;
14760;SDS011;7472;45.396;5.272;2024-01-11T04:02:17;59.22;;;30.05;;
14760;SDS011;7472;45.396;5.272;2024-01-11T04:04:44;52.92;;;28.98;;
14760;SDS011;7472;45.396;5.272;2024-01-11T04:07:11;53.50;;;28.67;;
14760;SDS011;7472;45.396;5.272;2024-01-11T04:09:40;52.97;;;29.20;;
14760;SDS011;7472;45.396;5.272;2024-01-11T04:12:08;55.25;;;29.63;;
14760;SDS011;7472;45.396;5.272;2024-01-11T04:14:37;54.85;;;27.00;;
14760;SDS011;7472;45.396;5.272;2024-01-11T04:17:05;44.07;;;21.70;;
14760;SDS011;7472;45.396;5.272;2024-01-11T04:19:32;47.30;;;22.45;;
14760;SDS011;7472;45.396;5.272;2024-01-11T04:22:00;55.13;;;28.15;;
14760;SDS011;7472;45.396;5.272;2024-01-11T04:24:27;52.40;;;27.95;;
14760;SDS011;7472;45.396;5.272;2024-01-11T04:26:56;55.15;;;29.27;;
14760;SDS011;7472;45.396;5.272;2024-01-11T04:29:23;53.80;;;28.98;;
14760;SDS011;7472;45.396;5.272;2024-01-11T04:31:51;52.93;;;27.60;;
14760;SDS011;7472;45.396;5.272;2024-01-11T04:34:18;48.67;;;27.20;;
14760;SDS011;7472;45.396;5.272;2024-01-11T04:36:45;44.87;;;26.10;;
14760;SDS011;7472;45.396;5.272;2024-01-11T04:39:13;53.13;;;29.23;;
14760;SDS011;7472;45.396;5.272;2024-01-11T04:41:40;48.63;;;26.00;;
14760;SDS011;7472;45.396;5.272;2024-01-11T04:44:09;49.27;;;26.30;;
14760;SDS011;7472;45.396;5.272;2024-01-11T04:46:37;44.27;;;23.53;;
14760;SDS011;7472;45.396;5.272;2024-01-11T04:49:04;49.90;;;26.03;;
14760;SDS011;7472;45.396;5.272;2024-01-11T04:51:31;48.03;;;24.90;;
14760;SDS011;7472;45.396;5.272;2024-01-11T04:53:59;43.00;;;22.50;;
14760;SDS011;7472;45.396;5.272;2024-01-11T04:56:27;49.97;;;27.73;;
14760;SDS011;7472;45.396;5.272;2024-01-11T04:58:54;48.67;;;26.63;;
14760;SDS011;7472;45.396;5.272;2024-01-11T05:01:23;29.60;;;17.43;;
14760;SDS011;7472;45.396;5.272;2024-01-11T05:03:51;45.53;;;23.47;;
14760;SDS011;7472;45.396;5.272;2024-01-11T05:06:19;51.20;;;25.60;;
14760;SDS011;7472;45.396;5.272;2024-01-11T05:08:47;50.13;;;26.17;;
14760;SDS011;7472;45.396;5.272;2024-01-11T05:11:15;48.27;;;25.67;;
14760;SDS011;7472;45.396;5.272;2024-01-11T05:13:43;50.23;;;26.37;;
14760;SDS011;7472;45.396;5.272;2024-01-11T05:16:17;44.90;;;25.60;;
14760;SDS011;7472;45.396;5.272;2024-01-11T05:18:46;38.60;;;21.30;;
14760;SDS011;7472;45.396;5.272;2024-01-11T05:21:13;45.37;;;25.67;;
14760;SDS011;7472;45.396;5.272;2024-01-11T05:23:41;49.93;;;26.03;;
14760;SDS011;7472;45.396;5.272;2024-01-11T05:26:08;41.30;;;22.67;;
14760;SDS011;7472;45.396;5.272;2024-01-11T05:28:35;45.73;;;25.27;;
14760;SDS011;7472;45.396;5.272;2024-01-11T05:31:05;26.90;;;13.57;;
14760;SDS011;7472;45.396;5.272;2024-01-11T05:33:33;42.90;;;22.50;;
14760;SDS011;7472;45.396;5.272;2024-01-11T05:36:02;47.00;;;26.33;;
14760;SDS011;7472;45.396;5.272;2024-01-11T05:38:29;47.67;;;25.83;;
14760;SDS011;7472;45.396;5.272;2024-01-11T05:40:56;48.53;;;25.20;;
14760;SDS011;7472;45.396;5.272;2024-01-11T05:43:24;48.83;;;25.40;;
14760;SDS011;7472;45.396;5.272;2024-01-11T05:45:52;49.13;;;26.42;;
14760;SDS011;7472;45.396;5.272;2024-01-11T05:48:21;44.80;;;25.20;;
14760;SDS011;7472;45.396;5.272;2024-01-11T05:50:50;52.05;;;27.20;;
14760;SDS011;7472;45.396;5.272;2024-01-11T05:53:19;48.67;;;25.07;;
14760;SDS011;7472;45.396;5.272;2024-01-11T05:55:48;49.80;;;27.50;;
14760;SDS011;7472;45.396;5.272;2024-01-11T05:58:15;50.93;;;26.07;;
14760;SDS011;7472;45.396;5.272;2024-01-11T06:00:44;51.53;;;25.53;;
14760;SDS011;7472;45.396;5.272;2024-01-11T06:03:12;50.03;;;27.27;;
14760;SDS011;7472;45.396;5.272;2024-01-11T06:05:40;50.97;;;25.83;;
14760;SDS011;7472;45.396;5.272;2024-01-11T06:08:08;49.70;;;26.07;;
14760;SDS011;7472;45.396;5.272;2024-01-11T06:10:38;46.97;;;23.67;;
14760;SDS011;7472;45.396;5.272;2024-01-11T06:13:06;49.53;;;25.93;;
14760;SDS011;7472;45.396;5.272;2024-01-11T06:15:34;51.30;;;26.43;;
14760;SDS011;7472;45.396;5.272;2024-01-11T06:18:03;49.53;;;23.63;;
14760;SDS011;7472;45.396;5.272;2024-01-11T06:20:32;44.70;;;26.80;;
14760;SDS011;7472;45.396;5.272;2024-01-11T06:23:02;53.17;;;29.07;;
14760;SDS011;7472;45.396;5.272;2024-01-11T06:25:30;50.00;;;26.67;;
14760;SDS011;7472;45.396;5.272;2024-01-11T06:27:59;53.00;;;26.08;;
14760;SDS011;7472;45.396;5.272;2024-01-11T06:30:29;52.67;;;27.17;;
14760;SDS011;7472;45.396;5.272;2024-01-11T06:32:58;52.80;;;26.92;;
14760;SDS011;7472;45.396;5.272;2024-01-11T06:35:26;53.67;;;27.87;;
14760;SDS011;7472;45.396;5.272;2024-01-11T06:37:54;50.40;;;25.17;;
14760;SDS011;7472;45.396;5.272;2024-01-11T06:40:22;55.40;;;28.77;;
14760;SDS011;7472;45.396;5.272;2024-01-11T06:42:51;53.23;;;27.63;;
14760;SDS011;7472;45.396;5.272;2024-01-11T06:45:20;46.33;;;23.60;;
14760;SDS011;7472;45.396;5.272;2024-01-11T06:47:49;50.07;;;26.63;;
14760;SDS011;7472;45.396;5.272;2024-01-11T06:50:17;22.95;;;13.13;;
14760;SDS011;7472;45.396;5.272;2024-01-11T06:52:45;51.13;;;26.07;;
14760;SDS011;7472;45.396;5.272;2024-01-11T06:55:13;50.58;;;23.48;;
14760;SDS011;7472;45.396;5.272;2024-01-11T06:57:41;59.05;;;28.35;;
14760;SDS011;7472;45.396;5.272;2024-01-11T07:00:10;31.90;;;15.25;;
14760;SDS011;7472;45.396;5.272;2024-01-11T07:02:41;47.00;;;25.47;;
14760;SDS011;7472;45.396;5.272;2024-01-11T07:05:08;51.30;;;26.30;;
14760;SDS011;7472;45.396;5.272;2024-01-11T07:07:35;45.97;;;24.30;;
14760;SDS011;7472;45.396;5.272;2024-01-11T07:10:03;53.80;;;27.38;;
14760;SDS011;7472;45.396;5.272;2024-01-11T07:12:30;48.55;;;26.95;;
14760;SDS011;7472;45.396;5.272;2024-01-11T07:14:58;48.25;;;25.80;;
14760;SDS011;7472;45.396;5.272;2024-01-11T07:17:25;51.37;;;27.40;;
14760;SDS011;7472;45.396;5.272;2024-01-11T07:19:54;41.97;;;24.10;;
14760;SDS011;7472;45.396;5.272;2024-01-11T07:22:21;47.17;;;25.52;;
14760;SDS011;7472;45.396;5.272;2024-01-11T07:24:49;43.80;;;25.10;;
14760;SDS011;7472;45.396;5.272;2024-01-11T07:27:16;45.27;;;25.10;;
14760;SDS011;7472;45.396;5.272;2024-01-11T07:29:44;41.65;;;20.90;;
14760;SDS011;7472;45.396;5.272;2024-01-11T07:32:11;42.60;;;23.13;;
14760;SDS011;7472;45.396;5.272;2024-01-11T07:34:38;42.80;;;23.08;;
14760;SDS011;7472;45.396;5.272;2024-01-11T07:37:07;43.42;;;22.52;;
14760;SDS011;7472;45.396;5.272;2024-01-11T07:39:34;43.87;;;22.30;;
14760;SDS011;7472;45.396;5.272;2024-01-11T07:42:02;42.87;;;25.60;;
14760;SDS011;7472;45.396;5.272;2024-01-11T07:44:30;40.22;;;23.27;;
14760;SDS011;7472;45.396;5.272;2024-01-11T07:46:57;41.30;;;24.10;;
14760;SDS011;7472;45.396;5.272;2024-01-11T07:49:24;43.13;;;22.63;;
14760;SDS011;7472;45.396;5.272;2024-01-11T07:51:52;40.43;;;23.20;;
14760;SDS011;7472;45.396;5.272;2024-01-11T07:54:20;44.17;;;23.43;;
14760;SDS011;7472;45.396;5.272;2024-01-11T07:56:48;40.53;;;23.37;;
14760;SDS011;7472;45.396;5.272;2024-01-11T07:59:15;43.87;;;23.17;;
14760;SDS011;7472;45.396;5.272;2024-01-11T08:01:42;44.25;;;25.67;;
14760;SDS011;7472;45.396;5.272;2024-01-11T08:04:10;47.67;;;28.63;;
14760;SDS011;7472;45.396;5.272;2024-01-11T08:06:37;39.80;;;21.35;;
14760;SDS011;7472;45.396;5.272;2024-01-11T08:09:05;44.53;;;24.90;;
14760;SDS011;7472;45.396;5.272;2024-01-11T08:11:36;42.20;;;23.73;;
14760;SDS011;7472;45.396;5.272;2024-01-11T08:14:04;46.27;;;24.93;;
14760;SDS011;7472;45.396;5.272;2024-01-11T08:16:31;39.27;;;23.17;;
14760;SDS011;7472;45.396;5.272;2024-01-11T08:18:59;40.10;;;23.63;;
14760;SDS011;7472;45.396;5.272;2024-01-11T08:21:26;37.05;;;21.40;;
14760;SDS011;7472;45.396;5.272;2024-01-11T08:23:54;35.33;;;20.75;;
14760;SDS011;7472;45.396;5.272;2024-01-11T08:26:21;35.30;;;21.07;;
14760;SDS011;7472;45.396;5.272;2024-01-11T08:28:50;34.75;;;19.40;;
14760;SDS011;7472;45.396;5.272;2024-01-11T08:31:18;35.05;;;21.75;;
14760;SDS011;7472;45.396;5.272;2024-01-11T08:33:46;36.27;;;21.83;;
14760;SDS011;7472;45.396;5.272;2024-01-11T08:36:15;33.80;;;20.40;;
14760;SDS011;7472;45.396;5.272;2024-01-11T08:38:42;35.72;;;21.27;;
14760;SDS011;7472;45.396;5.272;2024-01-11T08:41:09;39.87;;;21.27;;
14760;SDS011;7472;45.396;5.272;2024-01-11T08:43:37;39.07;;;21.77;;
14760;SDS011;7472;45.396;5.272;2024-01-11T08:46:06;41.40;;;22.83;;
14760;SDS011;7472;45.396;5.272;2024-01-11T08:48:33;39.03;;;21.13;;
14760;SDS011;7472;45.396;5.272;2024-01-11T08:51:00;40.20;;;23.45;;
14760;SDS011;7472;45.396;5.272;2024-01-11T08:53:28;38.53;;;22.67;;
14760;SDS011;7472;45.396;5.272;2024-01-11T08:55:55;38.07;;;21.77;;
14760;SDS011;7472;45.396;5.272;2024-01-11T08:58:22;43.87;;;24.17;;
14760;SDS011;7472;45.396;5.272;2024-01-11T09:00:50;39.20;;;23.70;;
14760;SDS011;7472;45.396;5.272;2024-01-11T09:03:18;41.17;;;22.87;;
14760;SDS011;7472;45.396;5.272;2024-01-11T09:05:46;38.03;;;21.40;;
14760;SDS011;7472;45.396;5.272;2024-01-11T09:08:13;32.22;;;19.35;;
14760;SDS011;7472;45.396;5.272;2024-01-11T09:10:40;40.17;;;23.17;;
14760;SDS011;7472;45.396;5.272;2024-01-11T09:13:08;42.35;;;24.70;;
14760;SDS011;7472;45.396;5.272;2024-01-11T09:15:35;38.43;;;22.07;;
14760;SDS011;7472;45.396;5.272;2024-01-11T09:18:03;37.30;;;20.58;;
14760;SDS011;7472;45.396;5.272;2024-01-11T09:20:32;33.22;;;19.80;;
14760;SDS011;7472;45.396;5.272;2024-01-11T09:22:59;30.50;;;18.83;;
14760;SDS011;7472;45.396;5.272;2024-01-11T09:25:28;30.57;;;18.40;;
14760;SDS011;7472;45.396;5.272;2024-01-11T09:27:56;29.95;;;17.73;;
14760;SDS011;7472;45.396;5.272;2024-01-11T09:30:23;37.80;;;20.88;;
14760;SDS011;7472;45.396;5.272;2024-01-11T09:32:50;29.45;;;18.38;;
14760;SDS011;7472;45.396;5.272;2024-01-11T09:35:18;35.10;;;20.08;;
14760;SDS011;7472;45.396;5.272;2024-01-11T09:37:47;32.43;;;19.37;;
14760;SDS011;7472;45.396;5.272;2024-01-11T09:40:14;35.37;;;19.53;;
14760;SDS011;7472;45.396;5.272;2024-01-11T09:42:42;32.78;;;19.88;;
14760;SDS011;7472;45.396;5.272;2024-01-11T09:45:09;32.77;;;20.30;;
14760;SDS011;7472;45.396;5.272;2024-01-11T09:47:37;36.17;;;20.23;;
14760;SDS011;7472;45.396;5.272;2024-01-11T09:50:06;30.53;;;17.63;;
14760;SDS011;7472;45.396;5.272;2024-01-11T09:52:33;32.77;;;18.70;;
14760;SDS011;7472;45.396;5.272;2024-01-11T09:55:02;30.77;;;19.87;;
14760;SDS011;7472;45.396;5.272;2024-01-11T09:57:30;25.53;;;16.80;;
14760;SDS011;7472;45.396;5.272;2024-01-11T09:59:58;36.37;;;18.40;;
14760;SDS011;7472;45.396;5.272;2024-01-11T10:02:25;33.60;;;17.10;;
14760;SDS011;7472;45.396;5.272;2024-01-11T10:04:52;31.77;;;17.95;;
14760;SDS011;7472;45.396;5.272;2024-01-11T10:07:19;29.50;;;17.88;;
14760;SDS011;7472;45.396;5.272;2024-01-11T10:09:48;31.03;;;18.63;;
14760;SDS011;7472;45.396;5.272;2024-01-11T10:12:18;33.13;;;19.08;;
14760;SDS011;7472;45.396;5.272;2024-01-11T10:14:48;32.58;;;18.27;;
14760;SDS011;7472;45.396;5.272;2024-01-11T10:17:15;36.03;;;19.00;;
14760;SDS011;7472;45.396;5.272;2024-01-11T10:19:43;33.50;;;19.33;;
14760;SDS011;7472;45.396;5.272;2024-01-11T10:22:10;33.70;;;20.17;;
14760;SDS011;7472;45.396;5.272;2024-01-11T10:24:41;33.90;;;18.57;;
14760;SDS011;7472;45.396;5.272;2024-01-11T10:27:09;34.77;;;20.53;;
14760;SDS011;7472;45.396;5.272;2024-01-11T10:29:38;33.10;;;20.20;;
14760;SDS011;7472;45.396;5.272;2024-01-11T10:32:06;36.10;;;21.40;;
14760;SDS011;7472;45.396;5.272;2024-01-11T10:34:34;39.05;;;21.83;;
14760;SDS011;7472;45.396;5.272;2024-01-11T10:37:05;35.63;;;20.33;;
14760;SDS011;7472;45.396;5.272;2024-01-11T10:39:32;38.38;;;21.90;;
14760;SDS011;7472;45.396;5.272;2024-01-11T10:42:04;35.87;;;20.50;;
14760;SDS011;7472;45.396;5.272;2024-01-11T10:44:33;33.88;;;18.02;;
14760;SDS011;7472;45.396;5.272;2024-01-11T10:47:02;34.20;;;18.83;;
14760;SDS011;7472;45.396;5.272;2024-01-11T10:49:32;33.03;;;19.73;;
14760;SDS011;7472;45.396;5.272;2024-01-11T10:52:02;33.23;;;18.97;;
14760;SDS011;7472;45.396;5.272;2024-01-11T10:54:30;34.75;;;20.60;;
14760;SDS011;7472;45.396;5.272;2024-01-11T10:56:58;36.37;;;19.73;;
14760;SDS011;7472;45.396;5.272;2024-01-11T10:59:26;35.00;;;19.50;;
14760;SDS011;7472;45.396;5.272;2024-01-11T11:01:55;34.03;;;19.67;;
14760;SDS011;7472;45.396;5.272;2024-01-11T11:04:25;34.77;;;19.07;;
14760;SDS011;7472;45.396;5.272;2024-01-11T11:06:54;34.90;;;20.05;;
14760;SDS011;7472;45.396;5.272;2024-01-11T11:09:22;33.15;;;20.35;;
14760;SDS011;7472;45.396;5.272;2024-01-11T11:11:49;38.85;;;20.70;;
14760;SDS011;7472;45.396;5.272;2024-01-11T11:14:17;34.40;;;19.90;;
14760;SDS011;7472;45.396;5.272;2024-01-11T11:16:45;36.63;;;21.67;;
14760;SDS011;7472;45.396;5.272;2024-01-11T11:19:13;40.80;;;22.33;;
14760;SDS011;7472;45.396;5.272;2024-01-11T11:21:43;36.27;;;21.73;;
14760;SDS011;7472;45.396;5.272;2024-01-11T11:24:10;40.63;;;22.38;;
14760;SDS011;7472;45.396;5.272;2024-01-11T11:26:38;38.95;;;21.63;;
14760;SDS011;7472;45.396;5.272;2024-01-11T11:29:07;34.15;;;19.52;;
14760;SDS011;7472;45.396;5.272;2024-01-11T11:31:35;36.17;;;21.30;;
14760;SDS011;7472;45.396;5.272;2024-01-11T11:34:03;34.45;;;19.90;;
14760;SDS011;7472;45.396;5.272;2024-01-11T11:36:31;36.93;;;22.50;;
14760;SDS011;7472;45.396;5.272;2024-01-11T11:39:01;38.03;;;20.45;;
14760;SDS011;7472;45.396;5.272;2024-01-11T11:41:30;34.97;;;20.33;;
14760;SDS011;7472;45.396;5.272;2024-01-11T11:44:00;38.35;;;20.48;;
14760;SDS011;7472;45.396;5.272;2024-01-11T11:46:28;38.90;;;21.92;;
14760;SDS011;7472;45.396;5.272;2024-01-11T11:48:56;37.45;;;21.08;;
14760;SDS011;7472;45.396;5.272;2024-01-11T11:51:24;34.85;;;19.15;;
14760;SDS011;7472;45.396;5.272;2024-01-11T11:53:53;38.92;;;21.95;;
14760;SDS011;7472;45.396;5.272;2024-01-11T11:56:22;34.30;;;19.35;;
14760;SDS011;7472;45.396;5.272;2024-01-11T11:58:49;38.60;;;20.50;;
14760;SDS011;7472;45.396;5.272;2024-01-11T12:01:18;34.20;;;20.37;;
14760;SDS011;7472;45.396;5.272;2024-01-11T12:03:46;38.45;;;21.42;;
14760;SDS011;7472;45.396;5.272;2024-01-11T12:06:15;32.63;;;19.40;;
14760;SDS011;7472;45.396;5.272;2024-01-11T12:08:43;34.67;;;20.13;;
14760;SDS011;7472;45.396;5.272;2024-01-11T12:11:12;33.37;;;20.20;;
14760;SDS011;7472;45.396;5.272;2024-01-11T12:13:41;31.33;;;17.47;;
14760;SDS011;7472;45.396;5.272;2024-01-11T12:16:10;34.35;;;19.17;;
14760;SDS011;7472;45.396;5.272;2024-01-11T12:18:37;37.10;;;20.70;;
14760;SDS011;7472;45.396;5.272;2024-01-11T12:21:05;35.17;;;20.83;;
14760;SDS011;7472;45.396;5.272;2024-01-11T12:23:33;38.38;;;21.63;;
14760;SDS011;7472;45.396;5.272;2024-01-11T12:26:01;35.95;;;19.38;;
14760;SDS011;7472;45.396;5.272;2024-01-11T12:28:30;34.15;;;20.85;;
14760;SDS011;7472;45.396;5.272;2024-01-11T12:31:00;32.95;;;19.88;;
14760;SDS011;7472;45.396;5.272;2024-01-11T12:33:28;35.45;;;20.23;;
14760;SDS011;7472;45.396;5.272;2024-01-11T12:35:56;34.85;;;20.02;;
14760;SDS011;7472;45.396;5.272;2024-01-11T12:38:23;32.58;;;19.42;;
14760;SDS011;7472;45.396;5.272;2024-01-11T12:40:51;34.77;;;20.37;;
14760;SDS011;7472;45.396;5.272;2024-01-11T12:43:18;29.27;;;17.80;;
14760;SDS011;7472;45.396;5.272;2024-01-11T12:45:45;35.10;;;19.65;;
14760;SDS011;7472;45.396;5.272;2024-01-11T12:48:14;33.35;;;19.58;;
14760;SDS011;7472;45.396;5.272;2024-01-11T12:50:43;32.70;;;19.35;;
14760;SDS011;7472;45.396;5.272;2024-01-11T12:53:11;34.58;;;20.13;;
14760;SDS011;7472;45.396;5.272;2024-01-11T12:55:43;31.52;;;19.52;;
14760;SDS011;7472;45.396;5.272;2024-01-11T12:58:10;38.53;;;22.67;;
14760;SDS011;7472;45.396;5.272;2024-01-11T13:00:38;42.33;;;26.33;;
14760;SDS011;7472;45.396;5.272;2024-01-11T13:03:06;35.42;;;20.95;;
14760;SDS011;7472;45.396;5.272;2024-01-11T13:05:36;30.90;;;19.42;;
14760;SDS011;7472;45.396;5.272;2024-01-11T13:08:07;27.17;;;16.67;;
14760;SDS011;7472;45.396;5.272;2024-01-11T13:10:35;26.90;;;14.50;;
14760;SDS011;7472;45.396;5.272;2024-01-11T13:13:03;32.13;;;19.03;;
14760;SDS011;7472;45.396;5.272;2024-01-11T13:15:30;28.05;;;16.30;;
14760;SDS011;7472;45.396;5.272;2024-01-11T13:17:58;37.08;;;20.80;;
14760;SDS011;7472;45.396;5.272;2024-01-11T13:20:25;28.02;;;16.13;;
14760;SDS011;7472;45.396;5.272;2024-01-11T13:22:55;32.10;;;18.43;;
14760;SDS011;7472;45.396;5.272;2024-01-11T13:25:38;32.23;;;18.13;;
14760;SDS011;7472;45.396;5.272;2024-01-11T13:28:06;30.13;;;17.65;;
14760;SDS011;7472;45.396;5.272;2024-01-11T13:30:33;30.60;;;17.03;;
14760;SDS011;7472;45.396;5.272;2024-01-11T13:33:00;27.98;;;16.90;;
14760;SDS011;7472;45.396;5.272;2024-01-11T13:35:28;31.33;;;18.92;;
14760;SDS011;7472;45.396;5.272;2024-01-11T13:37:56;32.85;;;19.67;;
14760;SDS011;7472;45.396;5.272;2024-01-11T13:40:24;30.67;;;19.60;;
14760;SDS011;7472;45.396;5.272;2024-01-11T13:42:53;31.52;;;19.25;;
14760;SDS011;7472;45.396;5.272;2024-01-11T13:45:21;31.95;;;19.08;;
14760;SDS011;7472;45.396;5.272;2024-01-11T13:47:49;31.27;;;18.65;;
14760;SDS011;7472;45.396;5.272;2024-01-11T13:50:16;31.33;;;18.37;;
14760;SDS011;7472;45.396;5.272;2024-01-11T13:52:44;30.40;;;18.00;;
14760;SDS011;7472;45.396;5.272;2024-01-11T13:55:13;30.55;;;18.80;;
14760;SDS011;7472;45.396;5.272;2024-01-11T13:57:40;29.60;;;15.80;;
14760;SDS011;7472;45.396;5.272;2024-01-11T14:00:09;33.70;;;19.38;;
14760;SDS011;7472;45.396;5.272;2024-01-11T14:02:37;34.08;;;19.85;;
14760;SDS011;7472;45.396;5.272;2024-01-11T14:05:06;39.22;;;21.50;;
14760;SDS011;7472;45.396;5.272;2024-01-11T14:07:36;33.85;;;19.52;;
14760;SDS011;7472;45.396;5.272;2024-01-11T14:10:04;38.30;;;21.88;;
14760;SDS011;7472;45.396;5.272;2024-01-11T14:12:34;38.80;;;20.38;;
14760;SDS011;7472;45.396;5.272;2024-01-11T14:15:02;38.78;;;21.33;;
14760;SDS011;7472;45.396;5.272;2024-01-11T14:17:30;34.78;;;19.73;;
14760;SDS011;7472;45.396;5.272;2024-01-11T14:19:57;38.97;;;21.77;;
14760;SDS011;7472;45.396;5.272;2024-01-11T14:22:24;38.05;;;20.77;;
14760;SDS011;7472;45.396;5.272;2024-01-11T14:24:52;33.92;;;19.73;;
14760;SDS011;7472;45.396;5.272;2024-01-11T14:27:19;36.85;;;20.50;;
14760;SDS011;7472;45.396;5.272;2024-01-11T14:29:48;33.03;;;17.75;;
14760;SDS011;7472;45.396;5.272;2024-01-11T14:32:16;38.90;;;20.98;;
14760;SDS011;7472;45.396;5.272;2024-01-11T14:34:44;34.88;;;21.08;;
14760;SDS011;7472;45.396;5.272;2024-01-11T14:37:11;34.47;;;19.30;;